sensor_id;sensor_type;location;lat;lon;timestamp;P1;durP1;ratioP1;P2;durP2;ratioP2
59233;SDS011;60776;51.702;7.462;2023-09-19T00:02:18;6.25;;;2.40;;
59233;SDS011;60776;51.702;7.462;2023-09-19T00:04:43;3.30;;;2.20;;
59233;SDS011;60776;51.702;7.462;2023-09-19T00:07:09;8.18;;;2.65;;
59233;SDS011;60776;51.702;7.462;2023-09-19T00:09:35;6.32;;;3.20;;
59233;SDS011;60776;51.702;7.462;2023-09-19T00:12:05;4.13;;;2.42;;
59233;SDS011;60776;51.702;7.462;2023-09-19T00:14:32;5.15;;;2.28;;
59233;SDS011;60776;51.702;7.462;2023-09-19T00:17:03;3.90;;;2.28;;
59233;SDS011;60776;51.702;7.462;2023-09-19T00:19:33;3.83;;;2.05;;
59233;SDS011;60776;51.702;7.462;2023-09-19T00:22:00;4.47;;;1.95;;
59233;SDS011;60776;51.702;7.462;2023-09-19T00:24:27;4.55;;;2.50;;
59233;SDS011;60776;51.702;7.462;2023-09-19T00:26:53;7.80;;;2.65;;
59233;SDS011;60776;51.702;7.462;2023-09-19T00:29:20;6.43;;;2.65;;
59233;SDS011;60776;51.702;7.462;2023-09-19T00:31:46;4.03;;;2.10;;
59233;SDS011;60776;51.702;7.462;2023-09-19T00:34:12;3.38;;;2.13;;
59233;SDS011;60776;51.702;7.462;2023-09-19T00:36:37;4.85;;;2.08;;
59233;SDS011;60776;51.702;7.462;2023-09-19T00:39:08;6.95;;;2.53;;
59233;SDS011;60776;51.702;7.462;2023-09-19T00:41:35;6.15;;;2.33;;
59233;SDS011;60776;51.702;7.462;2023-09-19T00:44:01;8.38;;;3.00;;
59233;SDS011;60776;51.702;7.462;2023-09-19T00:46:30;6.88;;;2.38;;
59233;SDS011;60776;51.702;7.462;2023-09-19T00:48:57;6.75;;;2.97;;
59233;SDS011;60776;51.702;7.462;2023-09-19T00:51:24;5.78;;;2.42;;
59233;SDS011;60776;51.702;7.462;2023-09-19T00:53:51;7.18;;;2.65;;
59233;SDS011;60776;51.702;7.462;2023-09-19T00:56:17;5.95;;;2.83;;
59233;SDS011;60776;51.702;7.462;2023-09-19T00:58:44;7.13;;;2.20;;
59233;SDS011;60776;51.702;7.462;2023-09-19T01:01:11;7.47;;;2.38;;
59233;SDS011;60776;51.702;7.462;2023-09-19T01:03:39;6.15;;;2.50;;
59233;SDS011;60776;51.702;7.462;2023-09-19T01:06:09;7.05;;;2.63;;
59233;SDS011;60776;51.702;7.462;2023-09-19T01:08:35;6.03;;;2.25;;
59233;SDS011;60776;51.702;7.462;2023-09-19T01:11:27;7.63;;;2.72;;
59233;SDS011;60776;51.702;7.462;2023-09-19T01:22:24;8.27;;;2.72;;
59233;SDS011;60776;51.702;7.462;2023-09-19T01:30:11;7.00;;;2.72;;
59233;SDS011;60776;51.702;7.462;2023-09-19T01:32:39;6.25;;;2.22;;
59233;SDS011;60776;51.702;7.462;2023-09-19T01:35:06;7.35;;;2.25;;
59233;SDS011;60776;51.702;7.462;2023-09-19T01:37:37;10.20;;;2.67;;
59233;SDS011;60776;51.702;7.462;2023-09-19T01:40:08;8.55;;;2.83;;
59233;SDS011;60776;51.702;7.462;2023-09-19T01:43:27;5.43;;;2.33;;
59233;SDS011;60776;51.702;7.462;2023-09-19T01:45:34;10.75;;;2.97;;
59233;SDS011;60776;51.702;7.462;2023-09-19T01:52:00;9.80;;;2.65;;
59233;SDS011;60776;51.702;7.462;2023-09-19T01:54:11;5.90;;;2.45;;
59233;SDS011;60776;51.702;7.462;2023-09-19T01:56:53;12.43;;;3.58;;
59233;SDS011;60776;51.702;7.462;2023-09-19T01:59:28;8.57;;;2.92;;
59233;SDS011;60776;51.702;7.462;2023-09-19T02:02:00;7.97;;;3.15;;
59233;SDS011;60776;51.702;7.462;2023-09-19T02:04:27;6.70;;;2.75;;
59233;SDS011;60776;51.702;7.462;2023-09-19T02:06:53;7.20;;;2.58;;
59233;SDS011;60776;51.702;7.462;2023-09-19T02:09:20;10.50;;;2.83;;
59233;SDS011;60776;51.702;7.462;2023-09-19T02:11:46;9.85;;;2.65;;
59233;SDS011;60776;51.702;7.462;2023-09-19T02:14:12;9.43;;;2.95;;
59233;SDS011;60776;51.702;7.462;2023-09-19T02:16:39;5.55;;;2.60;;
59233;SDS011;60776;51.702;7.462;2023-09-19T02:19:04;9.00;;;2.72;;
59233;SDS011;60776;51.702;7.462;2023-09-19T02:21:31;7.78;;;2.60;;
59233;SDS011;60776;51.702;7.462;2023-09-19T02:23:57;9.23;;;2.97;;
59233;SDS011;60776;51.702;7.462;2023-09-19T02:26:23;10.63;;;2.90;;
59233;SDS011;60776;51.702;7.462;2023-09-19T02:28:49;9.27;;;3.22;;
59233;SDS011;60776;51.702;7.462;2023-09-19T02:31:15;9.82;;;3.53;;
59233;SDS011;60776;51.702;7.462;2023-09-19T02:33:41;9.82;;;3.28;;
59233;SDS011;60776;51.702;7.462;2023-09-19T02:36:08;10.52;;;3.15;;
59233;SDS011;60776;51.702;7.462;2023-09-19T02:38:34;8.13;;;2.85;;
59233;SDS011;60776;51.702;7.462;2023-09-19T02:40:59;6.68;;;2.85;;
59233;SDS011;60776;51.702;7.462;2023-09-19T02:43:25;7.30;;;2.58;;
59233;SDS011;60776;51.702;7.462;2023-09-19T02:45:51;7.22;;;3.03;;
59233;SDS011;60776;51.702;7.462;2023-09-19T02:48:21;7.80;;;2.80;;
59233;SDS011;60776;51.702;7.462;2023-09-19T02:50:50;3.95;;;2.20;;
59233;SDS011;60776;51.702;7.462;2023-09-19T02:53:16;8.30;;;2.70;;
59233;SDS011;60776;51.702;7.462;2023-09-19T02:55:41;8.55;;;3.63;;
59233;SDS011;60776;51.702;7.462;2023-09-19T02:58:08;9.50;;;3.28;;
59233;SDS011;60776;51.702;7.462;2023-09-19T03:00:35;7.85;;;2.80;;
59233;SDS011;60776;51.702;7.462;2023-09-19T03:03:02;11.40;;;3.75;;
59233;SDS011;60776;51.702;7.462;2023-09-19T03:05:28;5.90;;;2.40;;
59233;SDS011;60776;51.702;7.462;2023-09-19T03:07:57;8.15;;;2.80;;
59233;SDS011;60776;51.702;7.462;2023-09-19T03:10:25;10.98;;;3.53;;
59233;SDS011;60776;51.702;7.462;2023-09-19T03:12:51;6.82;;;2.80;;
59233;SDS011;60776;51.702;7.462;2023-09-19T03:15:17;8.50;;;2.75;;
59233;SDS011;60776;51.702;7.462;2023-09-19T03:17:46;9.68;;;2.92;;
59233;SDS011;60776;51.702;7.462;2023-09-19T03:20:13;7.60;;;2.97;;
59233;SDS011;60776;51.702;7.462;2023-09-19T03:22:42;7.70;;;2.45;;
59233;SDS011;60776;51.702;7.462;2023-09-19T03:25:08;8.68;;;2.70;;
59233;SDS011;60776;51.702;7.462;2023-09-19T03:27:37;5.82;;;2.28;;
59233;SDS011;60776;51.702;7.462;2023-09-19T03:30:03;5.65;;;2.25;;
59233;SDS011;60776;51.702;7.462;2023-09-19T03:32:33;6.70;;;2.22;;
59233;SDS011;60776;51.702;7.462;2023-09-19T03:35:02;6.95;;;2.50;;
59233;SDS011;60776;51.702;7.462;2023-09-19T03:37:30;7.70;;;2.75;;
59233;SDS011;60776;51.702;7.462;2023-09-19T03:39:57;13.57;;;3.65;;
59233;SDS011;60776;51.702;7.462;2023-09-19T03:42:22;7.43;;;2.65;;
59233;SDS011;60776;51.702;7.462;2023-09-19T03:44:50;7.90;;;2.38;;
59233;SDS011;60776;51.702;7.462;2023-09-19T03:47:17;8.13;;;3.20;;
59233;SDS011;60776;51.702;7.462;2023-09-19T03:49:44;7.72;;;2.65;;
59233;SDS011;60776;51.702;7.462;2023-09-19T03:52:10;9.85;;;3.33;;
59233;SDS011;60776;51.702;7.462;2023-09-19T03:54:36;7.03;;;2.67;;
59233;SDS011;60776;51.702;7.462;2023-09-19T03:57:02;14.57;;;3.38;;
59233;SDS011;60776;51.702;7.462;2023-09-19T03:59:29;9.88;;;2.92;;
59233;SDS011;60776;51.702;7.462;2023-09-19T04:01:55;8.98;;;3.03;;
59233;SDS011;60776;51.702;7.462;2023-09-19T04:04:22;6.75;;;2.92;;
59233;SDS011;60776;51.702;7.462;2023-09-19T04:06:50;6.65;;;2.28;;
59233;SDS011;60776;51.702;7.462;2023-09-19T04:09:16;7.50;;;2.92;;
59233;SDS011;60776;51.702;7.462;2023-09-19T04:11:41;6.53;;;2.60;;
59233;SDS011;60776;51.702;7.462;2023-09-19T04:14:07;11.48;;;3.25;;
59233;SDS011;60776;51.702;7.462;2023-09-19T04:16:33;5.70;;;2.38;;
59233;SDS011;60776;51.702;7.462;2023-09-19T04:18:58;12.05;;;2.88;;
59233;SDS011;60776;51.702;7.462;2023-09-19T04:21:24;9.52;;;3.03;;
59233;SDS011;60776;51.702;7.462;2023-09-19T04:23:51;10.18;;;2.55;;
59233;SDS011;60776;51.702;7.462;2023-09-19T04:26:17;9.30;;;3.22;;
59233;SDS011;60776;51.702;7.462;2023-09-19T04:28:42;11.05;;;3.25;;
59233;SDS011;60776;51.702;7.462;2023-09-19T04:31:09;10.68;;;3.17;;
59233;SDS011;60776;51.702;7.462;2023-09-19T04:33:36;6.97;;;2.95;;
59233;SDS011;60776;51.702;7.462;2023-09-19T04:36:02;11.93;;;2.92;;
59233;SDS011;60776;51.702;7.462;2023-09-19T04:38:32;8.05;;;3.08;;
59233;SDS011;60776;51.702;7.462;2023-09-19T04:40:58;8.45;;;3.08;;
59233;SDS011;60776;51.702;7.462;2023-09-19T04:43:24;8.85;;;2.75;;
59233;SDS011;60776;51.702;7.462;2023-09-19T04:45:50;9.80;;;2.67;;
59233;SDS011;60776;51.702;7.462;2023-09-19T04:48:19;9.55;;;3.05;;
59233;SDS011;60776;51.702;7.462;2023-09-19T04:50:45;6.78;;;2.63;;
59233;SDS011;60776;51.702;7.462;2023-09-19T04:53:10;8.40;;;3.10;;
59233;SDS011;60776;51.702;7.462;2023-09-19T04:55:36;10.18;;;3.50;;
59233;SDS011;60776;51.702;7.462;2023-09-19T04:58:01;9.18;;;2.72;;
59233;SDS011;60776;51.702;7.462;2023-09-19T05:00:27;9.18;;;2.58;;
59233;SDS011;60776;51.702;7.462;2023-09-19T05:02:55;9.55;;;2.53;;
59233;SDS011;60776;51.702;7.462;2023-09-19T05:05:22;8.15;;;2.70;;
59233;SDS011;60776;51.702;7.462;2023-09-19T05:07:48;6.68;;;3.05;;
59233;SDS011;60776;51.702;7.462;2023-09-19T05:10:19;6.57;;;2.10;;
59233;SDS011;60776;51.702;7.462;2023-09-19T05:12:45;5.57;;;2.22;;
59233;SDS011;60776;51.702;7.462;2023-09-19T05:15:12;4.78;;;2.28;;
59233;SDS011;60776;51.702;7.462;2023-09-19T05:17:42;8.82;;;2.72;;
59233;SDS011;60776;51.702;7.462;2023-09-19T05:20:12;8.05;;;2.65;;
59233;SDS011;60776;51.702;7.462;2023-09-19T05:22:50;9.50;;;2.85;;
59233;SDS011;60776;51.702;7.462;2023-09-19T05:25:33;8.63;;;2.35;;
59233;SDS011;60776;51.702;7.462;2023-09-19T05:28:04;4.93;;;2.30;;
59233;SDS011;60776;51.702;7.462;2023-09-19T05:30:31;5.38;;;2.40;;
59233;SDS011;60776;51.702;7.462;2023-09-19T05:32:57;7.13;;;2.50;;
59233;SDS011;60776;51.702;7.462;2023-09-19T05:35:23;8.95;;;2.70;;
59233;SDS011;60776;51.702;7.462;2023-09-19T05:37:53;7.78;;;2.97;;
59233;SDS011;60776;51.702;7.462;2023-09-19T05:40:20;7.35;;;2.85;;
59233;SDS011;60776;51.702;7.462;2023-09-19T05:42:46;11.23;;;3.05;;
59233;SDS011;60776;51.702;7.462;2023-09-19T05:45:12;10.27;;;3.13;;
59233;SDS011;60776;51.702;7.462;2023-09-19T05:47:39;9.23;;;2.60;;
59233;SDS011;60776;51.702;7.462;2023-09-19T05:50:10;8.40;;;3.10;;
59233;SDS011;60776;51.702;7.462;2023-09-19T05:52:36;7.05;;;2.38;;
59233;SDS011;60776;51.702;7.462;2023-09-19T05:55:05;7.50;;;2.53;;
59233;SDS011;60776;51.702;7.462;2023-09-19T05:57:33;7.95;;;2.85;;
59233;SDS011;60776;51.702;7.462;2023-09-19T05:59:59;9.25;;;2.85;;
59233;SDS011;60776;51.702;7.462;2023-09-19T06:02:24;6.07;;;2.40;;
59233;SDS011;60776;51.702;7.462;2023-09-19T06:04:55;8.57;;;2.70;;
59233;SDS011;60776;51.702;7.462;2023-09-19T06:07:21;7.55;;;2.85;;
59233;SDS011;60776;51.702;7.462;2023-09-19T06:09:51;9.40;;;2.85;;
59233;SDS011;60776;51.702;7.462;2023-09-19T06:12:18;6.85;;;2.65;;
59233;SDS011;60776;51.702;7.462;2023-09-19T06:14:44;9.65;;;2.78;;
59233;SDS011;60776;51.702;7.462;2023-09-19T06:17:10;11.98;;;3.38;;
59233;SDS011;60776;51.702;7.462;2023-09-19T06:19:35;5.82;;;2.63;;
59233;SDS011;60776;51.702;7.462;2023-09-19T06:22:01;10.80;;;2.88;;
59233;SDS011;60776;51.702;7.462;2023-09-19T06:24:27;7.68;;;3.00;;
59233;SDS011;60776;51.702;7.462;2023-09-19T06:26:53;7.95;;;2.95;;
59233;SDS011;60776;51.702;7.462;2023-09-19T06:29:19;11.40;;;2.70;;
59233;SDS011;60776;51.702;7.462;2023-09-19T06:31:48;7.35;;;2.28;;
59233;SDS011;60776;51.702;7.462;2023-09-19T06:34:13;8.65;;;2.65;;
59233;SDS011;60776;51.702;7.462;2023-09-19T06:36:40;7.10;;;2.78;;
59233;SDS011;60776;51.702;7.462;2023-09-19T06:39:06;10.20;;;2.85;;
59233;SDS011;60776;51.702;7.462;2023-09-19T06:41:36;7.38;;;2.50;;
59233;SDS011;60776;51.702;7.462;2023-09-19T06:44:03;8.20;;;2.92;;
59233;SDS011;60776;51.702;7.462;2023-09-19T06:46:30;8.25;;;2.88;;
59233;SDS011;60776;51.702;7.462;2023-09-19T06:48:59;7.68;;;2.95;;
59233;SDS011;60776;51.702;7.462;2023-09-19T06:51:25;6.00;;;2.25;;
59233;SDS011;60776;51.702;7.462;2023-09-19T06:53:51;10.43;;;2.95;;
59233;SDS011;60776;51.702;7.462;2023-09-19T06:56:19;8.05;;;3.08;;
59233;SDS011;60776;51.702;7.462;2023-09-19T06:58:48;10.13;;;2.85;;
59233;SDS011;60776;51.702;7.462;2023-09-19T07:01:13;8.20;;;2.65;;
59233;SDS011;60776;51.702;7.462;2023-09-19T07:03:40;8.60;;;2.85;;
59233;SDS011;60776;51.702;7.462;2023-09-19T07:06:06;10.02;;;3.00;;
59233;SDS011;60776;51.702;7.462;2023-09-19T07:08:32;8.50;;;2.95;;
59233;SDS011;60776;51.702;7.462;2023-09-19T07:10:57;8.90;;;2.72;;
59233;SDS011;60776;51.702;7.462;2023-09-19T07:13:23;5.70;;;2.42;;
59233;SDS011;60776;51.702;7.462;2023-09-19T07:15:50;7.75;;;2.58;;
59233;SDS011;60776;51.702;7.462;2023-09-19T07:18:16;9.85;;;3.22;;
59233;SDS011;60776;51.702;7.462;2023-09-19T07:20:43;10.20;;;2.70;;
59233;SDS011;60776;51.702;7.462;2023-09-19T07:23:14;7.60;;;2.70;;
59233;SDS011;60776;51.702;7.462;2023-09-19T07:25:47;6.55;;;2.65;;
59233;SDS011;60776;51.702;7.462;2023-09-19T07:28:14;7.78;;;2.63;;
59233;SDS011;60776;51.702;7.462;2023-09-19T07:30:40;13.00;;;3.42;;
59233;SDS011;60776;51.702;7.462;2023-09-19T07:33:09;10.27;;;3.00;;
59233;SDS011;60776;51.702;7.462;2023-09-19T07:35:38;9.18;;;2.90;;
59233;SDS011;60776;51.702;7.462;2023-09-19T07:38:07;11.00;;;3.40;;
59233;SDS011;60776;51.702;7.462;2023-09-19T07:40:35;5.72;;;2.33;;
59233;SDS011;60776;51.702;7.462;2023-09-19T07:43:01;9.75;;;2.97;;
59233;SDS011;60776;51.702;7.462;2023-09-19T07:45:27;9.23;;;3.17;;
59233;SDS011;60776;51.702;7.462;2023-09-19T07:47:55;6.40;;;2.80;;
59233;SDS011;60776;51.702;7.462;2023-09-19T07:50:21;16.70;;;3.30;;
59233;SDS011;60776;51.702;7.462;2023-09-19T07:52:47;8.77;;;2.80;;
59233;SDS011;60776;51.702;7.462;2023-09-19T07:55:15;9.75;;;3.00;;
59233;SDS011;60776;51.702;7.462;2023-09-19T07:57:42;7.60;;;3.35;;
59233;SDS011;60776;51.702;7.462;2023-09-19T08:00:09;10.40;;;3.20;;
59233;SDS011;60776;51.702;7.462;2023-09-19T08:02:36;6.57;;;2.35;;
59233;SDS011;60776;51.702;7.462;2023-09-19T08:05:03;10.32;;;3.05;;
59233;SDS011;60776;51.702;7.462;2023-09-19T08:07:31;9.57;;;3.00;;
59233;SDS011;60776;51.702;7.462;2023-09-19T08:09:57;7.45;;;2.83;;
59233;SDS011;60776;51.702;7.462;2023-09-19T08:12:23;9.25;;;3.20;;
59233;SDS011;60776;51.702;7.462;2023-09-19T08:14:49;7.90;;;3.05;;
59233;SDS011;60776;51.702;7.462;2023-09-19T08:17:15;6.38;;;2.60;;
59233;SDS011;60776;51.702;7.462;2023-09-19T08:19:41;8.30;;;2.70;;
59233;SDS011;60776;51.702;7.462;2023-09-19T08:22:10;6.63;;;2.63;;
59233;SDS011;60776;51.702;7.462;2023-09-19T08:24:36;8.23;;;2.95;;
59233;SDS011;60776;51.702;7.462;2023-09-19T08:27:03;7.25;;;3.03;;
59233;SDS011;60776;51.702;7.462;2023-09-19T08:29:29;11.02;;;3.30;;
59233;SDS011;60776;51.702;7.462;2023-09-19T08:31:59;6.85;;;2.97;;
59233;SDS011;60776;51.702;7.462;2023-09-19T08:34:24;9.73;;;3.28;;
59233;SDS011;60776;51.702;7.462;2023-09-19T08:36:54;9.15;;;3.00;;
59233;SDS011;60776;51.702;7.462;2023-09-19T08:39:26;9.90;;;2.95;;
59233;SDS011;60776;51.702;7.462;2023-09-19T08:42:01;8.63;;;3.08;;
59233;SDS011;60776;51.702;7.462;2023-09-19T08:44:27;8.85;;;3.00;;
59233;SDS011;60776;51.702;7.462;2023-09-19T08:47:15;10.30;;;3.45;;
59233;SDS011;60776;51.702;7.462;2023-09-19T08:52:27;7.95;;;2.88;;
59233;SDS011;60776;51.702;7.462;2023-09-19T08:54:59;11.23;;;3.33;;
59233;SDS011;60776;51.702;7.462;2023-09-19T08:57:29;8.38;;;2.95;;
59233;SDS011;60776;51.702;7.462;2023-09-19T09:00:02;6.70;;;3.05;;
59233;SDS011;60776;51.702;7.462;2023-09-19T09:02:37;8.57;;;2.90;;
59233;SDS011;60776;51.702;7.462;2023-09-19T09:05:06;7.13;;;2.63;;
59233;SDS011;60776;51.702;7.462;2023-09-19T09:07:40;9.23;;;3.15;;
59233;SDS011;60776;51.702;7.462;2023-09-19T09:10:09;6.93;;;2.42;;
59233;SDS011;60776;51.702;7.462;2023-09-19T09:12:35;9.40;;;3.22;;
59233;SDS011;60776;51.702;7.462;2023-09-19T09:15:06;10.00;;;3.22;;
59233;SDS011;60776;51.702;7.462;2023-09-19T09:17:33;5.55;;;2.67;;
59233;SDS011;60776;51.702;7.462;2023-09-19T09:19:59;7.55;;;2.88;;
59233;SDS011;60776;51.702;7.462;2023-09-19T09:22:25;7.82;;;2.85;;
59233;SDS011;60776;51.702;7.462;2023-09-19T09:24:54;10.55;;;3.10;;
59233;SDS011;60776;51.702;7.462;2023-09-19T09:27:28;10.13;;;3.67;;
59233;SDS011;60776;51.702;7.462;2023-09-19T09:29:54;8.20;;;2.50;;
59233;SDS011;60776;51.702;7.462;2023-09-19T09:34:48;9.52;;;2.80;;
59233;SDS011;60776;51.702;7.462;2023-09-19T09:37:22;7.00;;;3.17;;
59233;SDS011;60776;51.702;7.462;2023-09-19T09:39:50;8.65;;;3.08;;
59233;SDS011;60776;51.702;7.462;2023-09-19T09:42:34;9.50;;;2.75;;
59233;SDS011;60776;51.702;7.462;2023-09-19T09:45:19;9.10;;;2.92;;
59233;SDS011;60776;51.702;7.462;2023-09-19T09:48:15;8.38;;;3.10;;
59233;SDS011;60776;51.702;7.462;2023-09-19T09:50:56;6.68;;;2.60;;
59233;SDS011;60776;51.702;7.462;2023-09-19T09:53:26;7.03;;;2.80;;
59233;SDS011;60776;51.702;7.462;2023-09-19T09:55:58;7.25;;;3.38;;
59233;SDS011;60776;51.702;7.462;2023-09-19T10:01:14;6.90;;;2.78;;
59233;SDS011;60776;51.702;7.462;2023-09-19T10:03:41;5.18;;;2.40;;
59233;SDS011;60776;51.702;7.462;2023-09-19T10:06:13;7.07;;;3.00;;
59233;SDS011;60776;51.702;7.462;2023-09-19T10:09:07;5.82;;;3.08;;
59233;SDS011;60776;51.702;7.462;2023-09-19T10:14:28;6.82;;;2.42;;
59233;SDS011;60776;51.702;7.462;2023-09-19T10:16:56;7.97;;;2.75;;
59233;SDS011;60776;51.702;7.462;2023-09-19T10:19:52;6.82;;;2.60;;
59233;SDS011;60776;51.702;7.462;2023-09-19T10:22:23;7.70;;;3.00;;
59233;SDS011;60776;51.702;7.462;2023-09-19T10:24:53;5.20;;;2.58;;
59233;SDS011;60776;51.702;7.462;2023-09-19T10:27:20;8.10;;;3.00;;
59233;SDS011;60776;51.702;7.462;2023-09-19T10:29:48;7.00;;;2.83;;
59233;SDS011;60776;51.702;7.462;2023-09-19T10:32:19;6.25;;;2.72;;
59233;SDS011;60776;51.702;7.462;2023-09-19T10:34:51;10.95;;;3.45;;
59233;SDS011;60776;51.702;7.462;2023-09-19T10:37:32;7.13;;;2.63;;
59233;SDS011;60776;51.702;7.462;2023-09-19T10:40:02;7.03;;;2.85;;
59233;SDS011;60776;51.702;7.462;2023-09-19T10:42:33;8.98;;;3.53;;
59233;SDS011;60776;51.702;7.462;2023-09-19T10:45:03;6.50;;;2.90;;
59233;SDS011;60776;51.702;7.462;2023-09-19T10:47:38;10.13;;;2.60;;
59233;SDS011;60776;51.702;7.462;2023-09-19T10:50:06;6.68;;;2.80;;
59233;SDS011;60776;51.702;7.462;2023-09-19T10:52:45;6.45;;;2.67;;
59233;SDS011;60776;51.702;7.462;2023-09-19T10:55:22;5.70;;;2.78;;
59233;SDS011;60776;51.702;7.462;2023-09-19T10:57:49;5.57;;;2.80;;
59233;SDS011;60776;51.702;7.462;2023-09-19T11:00:14;7.75;;;2.50;;
59233;SDS011;60776;51.702;7.462;2023-09-19T11:05:42;4.55;;;2.70;;
59233;SDS011;60776;51.702;7.462;2023-09-19T11:08:08;6.25;;;2.90;;
59233;SDS011;60776;51.702;7.462;2023-09-19T11:10:49;6.32;;;2.60;;
59233;SDS011;60776;51.702;7.462;2023-09-19T11:29:26;9.38;;;2.65;;
59233;SDS011;60776;51.702;7.462;2023-09-19T11:31:54;9.43;;;2.65;;
59233;SDS011;60776;51.702;7.462;2023-09-19T11:37:03;8.10;;;2.95;;
59233;SDS011;60776;51.702;7.462;2023-09-19T11:40:07;6.00;;;2.58;;
59233;SDS011;60776;51.702;7.462;2023-09-19T11:42:44;6.85;;;2.55;;
59233;SDS011;60776;51.702;7.462;2023-09-19T11:48:12;6.30;;;2.50;;
59233;SDS011;60776;51.702;7.462;2023-09-19T11:50:43;3.83;;;2.20;;
59233;SDS011;60776;51.702;7.462;2023-09-19T11:53:13;4.72;;;2.20;;
59233;SDS011;60776;51.702;7.462;2023-09-19T11:55:41;7.85;;;2.90;;
59233;SDS011;60776;51.702;7.462;2023-09-19T11:58:10;9.85;;;2.58;;
59233;SDS011;60776;51.702;7.462;2023-09-19T12:00:40;5.25;;;2.22;;
59233;SDS011;60776;51.702;7.462;2023-09-19T12:03:10;5.32;;;2.42;;
59233;SDS011;60776;51.702;7.462;2023-09-19T12:05:39;5.88;;;2.03;;
59233;SDS011;60776;51.702;7.462;2023-09-19T12:08:05;4.03;;;2.00;;
59233;SDS011;60776;51.702;7.462;2023-09-19T12:13:35;6.30;;;2.40;;
59233;SDS011;60776;51.702;7.462;2023-09-19T12:16:10;5.93;;;2.50;;
59233;SDS011;60776;51.702;7.462;2023-09-19T12:18:45;8.70;;;2.53;;
59233;SDS011;60776;51.702;7.462;2023-09-19T12:21:26;6.45;;;2.17;;
59233;SDS011;60776;51.702;7.462;2023-09-19T12:24:03;12.70;;;2.50;;
59233;SDS011;60776;51.702;7.462;2023-09-19T12:26:47;4.82;;;2.20;;
59233;SDS011;60776;51.702;7.462;2023-09-19T12:29:17;4.60;;;2.47;;
59233;SDS011;60776;51.702;7.462;2023-09-19T12:31:53;8.95;;;2.75;;
59233;SDS011;60776;51.702;7.462;2023-09-19T12:34:26;4.75;;;2.00;;
59233;SDS011;60776;51.702;7.462;2023-09-19T12:37:11;5.40;;;2.33;;
59233;SDS011;60776;51.702;7.462;2023-09-19T12:39:41;10.20;;;2.50;;
59233;SDS011;60776;51.702;7.462;2023-09-19T12:42:08;4.35;;;2.13;;
59233;SDS011;60776;51.702;7.462;2023-09-19T12:44:41;7.43;;;2.40;;
59233;SDS011;60776;51.702;7.462;2023-09-19T12:47:15;12.57;;;3.20;;
59233;SDS011;60776;51.702;7.462;2023-09-19T12:52:39;5.35;;;2.30;;
59233;SDS011;60776;51.702;7.462;2023-09-19T12:55:06;11.90;;;2.75;;
59233;SDS011;60776;51.702;7.462;2023-09-19T12:57:35;8.05;;;2.38;;
59233;SDS011;60776;51.702;7.462;2023-09-19T13:00:02;8.50;;;2.17;;
59233;SDS011;60776;51.702;7.462;2023-09-19T13:02:30;10.10;;;2.90;;
59233;SDS011;60776;51.702;7.462;2023-09-19T13:04:57;4.82;;;2.15;;
59233;SDS011;60776;51.702;7.462;2023-09-19T13:07:44;13.18;;;3.25;;
59233;SDS011;60776;51.702;7.462;2023-09-19T13:10:15;5.10;;;2.40;;
59233;SDS011;60776;51.702;7.462;2023-09-19T13:12:43;6.55;;;2.35;;
59233;SDS011;60776;51.702;7.462;2023-09-19T13:15:12;17.23;;;2.95;;
59233;SDS011;60776;51.702;7.462;2023-09-19T13:17:48;6.05;;;2.22;;
59233;SDS011;60776;51.702;7.462;2023-09-19T13:20:21;4.70;;;1.98;;
59233;SDS011;60776;51.702;7.462;2023-09-19T13:22:57;6.75;;;2.40;;
59233;SDS011;60776;51.702;7.462;2023-09-19T13:25:33;15.45;;;2.75;;
59233;SDS011;60776;51.702;7.462;2023-09-19T13:27:59;5.93;;;2.10;;
59233;SDS011;60776;51.702;7.462;2023-09-19T13:30:29;5.28;;;2.00;;
59233;SDS011;60776;51.702;7.462;2023-09-19T13:33:09;3.58;;;1.88;;
59233;SDS011;60776;51.702;7.462;2023-09-19T13:35:36;8.90;;;2.30;;
59233;SDS011;60776;51.702;7.462;2023-09-19T13:38:05;4.95;;;2.58;;
59233;SDS011;60776;51.702;7.462;2023-09-19T13:40:34;3.63;;;1.88;;
59233;SDS011;60776;51.702;7.462;2023-09-19T13:43:03;6.60;;;2.58;;
59233;SDS011;60776;51.702;7.462;2023-09-19T13:45:29;6.47;;;2.33;;
59233;SDS011;60776;51.702;7.462;2023-09-19T13:47:55;4.57;;;2.13;;
59233;SDS011;60776;51.702;7.462;2023-09-19T13:50:21;6.75;;;1.98;;
59233;SDS011;60776;51.702;7.462;2023-09-19T13:52:49;6.22;;;1.80;;
59233;SDS011;60776;51.702;7.462;2023-09-19T13:55:19;11.65;;;1.90;;
59233;SDS011;60776;51.702;7.462;2023-09-19T13:57:48;10.15;;;1.88;;
59233;SDS011;60776;51.702;7.462;2023-09-19T14:00:21;4.43;;;1.75;;
59233;SDS011;60776;51.702;7.462;2023-09-19T14:02:49;12.13;;;2.15;;
59233;SDS011;60776;51.702;7.462;2023-09-19T14:05:15;7.55;;;2.17;;
59233;SDS011;60776;51.702;7.462;2023-09-19T14:07:42;4.30;;;1.90;;
59233;SDS011;60776;51.702;7.462;2023-09-19T14:10:08;11.88;;;2.72;;
59233;SDS011;60776;51.702;7.462;2023-09-19T14:12:35;11.88;;;2.20;;
59233;SDS011;60776;51.702;7.462;2023-09-19T14:15:07;20.58;;;2.97;;
59233;SDS011;60776;51.702;7.462;2023-09-19T14:17:33;49.25;;;4.80;;
59233;SDS011;60776;51.702;7.462;2023-09-19T14:19:59;40.53;;;4.85;;
59233;SDS011;60776;51.702;7.462;2023-09-19T14:22:25;5.07;;;1.52;;
59233;SDS011;60776;51.702;7.462;2023-09-19T14:24:51;8.40;;;2.08;;
59233;SDS011;60776;51.702;7.462;2023-09-19T14:27:17;13.82;;;2.75;;
59233;SDS011;60776;51.702;7.462;2023-09-19T14:29:43;4.28;;;1.70;;
59233;SDS011;60776;51.702;7.462;2023-09-19T14:32:09;3.30;;;1.50;;
59233;SDS011;60776;51.702;7.462;2023-09-19T14:34:35;3.88;;;1.30;;
59233;SDS011;60776;51.702;7.462;2023-09-19T14:37:06;3.97;;;1.40;;
59233;SDS011;60776;51.702;7.462;2023-09-19T14:39:33;6.10;;;2.13;;
59233;SDS011;60776;51.702;7.462;2023-09-19T14:41:58;4.97;;;1.48;;
59233;SDS011;60776;51.702;7.462;2023-09-19T14:44:24;2.30;;;1.30;;
59233;SDS011;60776;51.702;7.462;2023-09-19T14:46:50;6.03;;;1.55;;
59233;SDS011;60776;51.702;7.462;2023-09-19T14:49:15;3.63;;;1.40;;
59233;SDS011;60776;51.702;7.462;2023-09-19T14:51:41;4.07;;;1.27;;
59233;SDS011;60776;51.702;7.462;2023-09-19T14:54:12;5.70;;;1.52;;
59233;SDS011;60776;51.702;7.462;2023-09-19T14:56:43;5.65;;;1.60;;
59233;SDS011;60776;51.702;7.462;2023-09-19T14:59:09;4.97;;;1.83;;
59233;SDS011;60776;51.702;7.462;2023-09-19T15:01:40;7.30;;;1.65;;
59233;SDS011;60776;51.702;7.462;2023-09-19T15:04:07;7.85;;;1.70;;
59233;SDS011;60776;51.702;7.462;2023-09-19T15:06:36;7.13;;;2.20;;
59233;SDS011;60776;51.702;7.462;2023-09-19T15:09:01;8.13;;;2.08;;
59233;SDS011;60776;51.702;7.462;2023-09-19T15:11:29;13.05;;;2.03;;
59233;SDS011;60776;51.702;7.462;2023-09-19T15:13:55;5.18;;;1.30;;
59233;SDS011;60776;51.702;7.462;2023-09-19T15:16:21;6.07;;;1.60;;
59233;SDS011;60776;51.702;7.462;2023-09-19T15:18:47;3.47;;;1.30;;
59233;SDS011;60776;51.702;7.462;2023-09-19T15:21:13;3.78;;;1.48;;
59233;SDS011;60776;51.702;7.462;2023-09-19T15:23:40;3.60;;;1.33;;
59233;SDS011;60776;51.702;7.462;2023-09-19T15:26:07;5.20;;;1.60;;
59233;SDS011;60776;51.702;7.462;2023-09-19T15:28:35;2.90;;;1.20;;
59233;SDS011;60776;51.702;7.462;2023-09-19T15:31:02;4.05;;;1.20;;
59233;SDS011;60776;51.702;7.462;2023-09-19T15:33:33;4.55;;;1.30;;
59233;SDS011;60776;51.702;7.462;2023-09-19T15:36:08;5.15;;;1.35;;
59233;SDS011;60776;51.702;7.462;2023-09-19T15:41:37;5.32;;;1.42;;
59233;SDS011;60776;51.702;7.462;2023-09-19T15:44:10;5.93;;;1.45;;
59233;SDS011;60776;51.702;7.462;2023-09-19T15:46:37;4.78;;;1.20;;
59233;SDS011;60776;51.702;7.462;2023-09-19T15:49:03;4.40;;;1.33;;
59233;SDS011;60776;51.702;7.462;2023-09-19T15:51:28;1.90;;;1.00;;
59233;SDS011;60776;51.702;7.462;2023-09-19T15:53:55;2.60;;;1.08;;
59233;SDS011;60776;51.702;7.462;2023-09-19T15:56:22;5.22;;;1.20;;
59233;SDS011;60776;51.702;7.462;2023-09-19T15:58:52;4.28;;;0.98;;